sensor_id;sensor_type;location;lat;lon;timestamp;pressure;altitude;pressure_sealevel;temperature;humidity
32131;BME280;18639;50.716;7.086;2023-02-18T00:01:20;101129.28;;;11.44;100.00
32131;BME280;18639;50.716;7.086;2023-02-18T00:03:46;101141.75;;;11.53;100.00
32131;BME280;18639;50.716;7.086;2023-02-18T00:06:15;101066.41;;;10.96;100.00
32131;BME280;18639;50.716;7.086;2023-02-18T00:08:42;101133.81;;;11.40;100.00
32131;BME280;18639;50.716;7.086;2023-02-18T00:11:08;101144.16;;;11.40;100.00
32131;BME280;18639;50.716;7.086;2023-02-18T00:13:33;101123.16;;;11.30;100.00
32131;BME280;18639;50.716;7.086;2023-02-18T00:16:04;101126.50;;;11.32;100.00
32131;BME280;18639;50.716;7.086;2023-02-18T00:18:30;101136.41;;;11.40;100.00
32131;BME280;18639;50.716;7.086;2023-02-18T00:20:56;101148.00;;;11.49;100.00
32131;BME280;18639;50.716;7.086;2023-02-18T00:23:21;101141.25;;;11.46;100.00
32131;BME280;18639;50.716;7.086;2023-02-18T00:25:47;101129.75;;;11.36;100.00
32131;BME280;18639;50.716;7.086;2023-02-18T00:28:12;101146.94;;;11.53;100.00
32131;BME280;18639;50.716;7.086;2023-02-18T00:30:42;101136.16;;;11.45;100.00
32131;BME280;18639;50.716;7.086;2023-02-18T00:33:07;101133.75;;;11.42;100.00
32131;BME280;18639;50.716;7.086;2023-02-18T00:35:33;101127.53;;;11.44;100.00
32131;BME280;18639;50.716;7.086;2023-02-18T00:37:58;101110.13;;;11.32;100.00
32131;BME280;18639;50.716;7.086;2023-02-18T00:40:24;101127.81;;;11.39;100.00
32131;BME280;18639;50.716;7.086;2023-02-18T00:42:49;101134.66;;;11.40;100.00
32131;BME280;18639;50.716;7.086;2023-02-18T00:45:15;101140.75;;;11.39;100.00
32131;BME280;18639;50.716;7.086;2023-02-18T00:47:40;101098.13;;;11.15;100.00
32131;BME280;18639;50.716;7.086;2023-02-18T00:50:06;101117.72;;;11.35;100.00
32131;BME280;18639;50.716;7.086;2023-02-18T00:52:32;101070.91;;;11.08;100.00
32131;BME280;18639;50.716;7.086;2023-02-18T00:54:57;101044.97;;;10.94;100.00
32131;BME280;18639;50.716;7.086;2023-02-18T00:57:23;101076.16;;;11.07;100.00
32131;BME280;18639;50.716;7.086;2023-02-18T00:59:48;101084.59;;;11.10;100.00
32131;BME280;18639;50.716;7.086;2023-02-18T01:02:13;101092.84;;;11.17;100.00
32131;BME280;18639;50.716;7.086;2023-02-18T01:04:39;101082.84;;;11.11;100.00
32131;BME280;18639;50.716;7.086;2023-02-18T01:07:07;101088.84;;;11.11;100.00
32131;BME280;18639;50.716;7.086;2023-02-18T01:09:37;101099.78;;;11.16;100.00
32131;BME280;18639;50.716;7.086;2023-02-18T01:12:03;101093.25;;;11.25;100.00
32131;BME280;18639;50.716;7.086;2023-02-18T01:14:28;101098.38;;;11.26;100.00
32131;BME280;18639;50.716;7.086;2023-02-18T01:16:54;101078.09;;;11.19;100.00
32131;BME280;18639;50.716;7.086;2023-02-18T01:19:19;101107.44;;;11.33;100.00
32131;BME280;18639;50.716;7.086;2023-02-18T01:21:44;101104.38;;;11.27;100.00
32131;BME280;18639;50.716;7.086;2023-02-18T01:24:09;101063.81;;;11.12;100.00
32131;BME280;18639;50.716;7.086;2023-02-18T01:26:35;101083.19;;;11.20;100.00
32131;BME280;18639;50.716;7.086;2023-02-18T01:29:00;101070.75;;;11.27;100.00
32131;BME280;18639;50.716;7.086;2023-02-18T01:31:25;101077.34;;;11.32;100.00
32131;BME280;18639;50.716;7.086;2023-02-18T01:33:50;101055.72;;;11.18;100.00
32131;BME280;18639;50.716;7.086;2023-02-18T01:36:16;101084.59;;;11.26;100.00
32131;BME280;18639;50.716;7.086;2023-02-18T01:38:42;101082.00;;;11.26;100.00
32131;BME280;18639;50.716;7.086;2023-02-18T01:41:07;101065.16;;;11.19;100.00
32131;BME280;18639;50.716;7.086;2023-02-18T01:43:33;101069.06;;;11.26;100.00
32131;BME280;18639;50.716;7.086;2023-02-18T01:48:40;101049.38;;;11.23;100.00
32131;BME280;18639;50.716;7.086;2023-02-18T01:51:22;101056.78;;;11.29;100.00
32131;BME280;18639;50.716;7.086;2023-02-18T01:54:20;101051.47;;;11.32;100.00
32131;BME280;18639;50.716;7.086;2023-02-18T01:57:08;101054.38;;;11.26;100.00
32131;BME280;18639;50.716;7.086;2023-02-18T01:59:45;101073.06;;;11.31;100.00
32131;BME280;18639;50.716;7.086;2023-02-18T02:02:16;101067.78;;;11.33;100.00
32131;BME280;18639;50.716;7.086;2023-02-18T02:04:43;101056.41;;;11.21;100.00
32131;BME280;18639;50.716;7.086;2023-02-18T02:07:09;101061.03;;;11.30;100.00
32131;BME280;18639;50.716;7.086;2023-02-18T02:09:35;101046.97;;;11.20;100.00
32131;BME280;18639;50.716;7.086;2023-02-18T02:23:05;101029.75;;;11.19;100.00
32131;BME280;18639;50.716;7.086;2023-02-18T02:26:11;101032.16;;;11.22;100.00
32131;BME280;18639;50.716;7.086;2023-02-18T02:32:04;101024.31;;;11.24;100.00
32131;BME280;18639;50.716;7.086;2023-02-18T02:37:54;101013.06;;;11.25;100.00
32131;BME280;18639;50.716;7.086;2023-02-18T02:40:23;101012.22;;;11.24;100.00
32131;BME280;18639;50.716;7.086;2023-02-18T02:50:53;100983.53;;;11.13;100.00
32131;BME280;18639;50.716;7.086;2023-02-18T02:53:24;100997.63;;;11.23;100.00
32131;BME280;18639;50.716;7.086;2023-02-18T02:55:51;100995.03;;;11.23;100.00
32131;BME280;18639;50.716;7.086;2023-02-18T02:58:18;101001.97;;;11.23;100.00
32131;BME280;18639;50.716;7.086;2023-02-18T03:03:38;100996.97;;;11.20;100.00
32131;BME280;18639;50.716;7.086;2023-02-18T03:08:55;100986.13;;;11.13;100.00
32131;BME280;18639;50.716;7.086;2023-02-18T03:11:28;100983.38;;;11.16;100.00
32131;BME280;18639;50.716;7.086;2023-02-18T03:14:10;100957.09;;;11.08;100.00
32131;BME280;18639;50.716;7.086;2023-02-18T03:16:45;100973.78;;;11.18;100.00
32131;BME280;18639;50.716;7.086;2023-02-18T03:19:39;100974.59;;;11.19;100.00
32131;BME280;18639;50.716;7.086;2023-02-18T03:22:30;100942.84;;;11.01;100.00
32131;BME280;18639;50.716;7.086;2023-02-18T03:24:57;100945.78;;;11.11;100.00
32131;BME280;18639;50.716;7.086;2023-02-18T03:30:28;100933.84;;;11.22;100.00
32131;BME280;18639;50.716;7.086;2023-02-18T03:32:57;100930.56;;;11.20;100.00
32131;BME280;18639;50.716;7.086;2023-02-18T03:35:24;100912.31;;;11.22;100.00
32131;BME280;18639;50.716;7.086;2023-02-18T03:37:59;100923.84;;;11.32;100.00
32131;BME280;18639;50.716;7.086;2023-02-18T03:40:28;100922.81;;;11.34;100.00
32131;BME280;18639;50.716;7.086;2023-02-18T03:42:56;100927.06;;;11.35;100.00
32131;BME280;18639;50.716;7.086;2023-02-18T03:45:21;100904.41;;;11.25;100.00
32131;BME280;18639;50.716;7.086;2023-02-18T03:47:46;100919.31;;;11.35;100.00
32131;BME280;18639;50.716;7.086;2023-02-18T03:50:12;100900.78;;;11.27;100.00
32131;BME280;18639;50.716;7.086;2023-02-18T03:52:37;100903.22;;;11.30;100.00
32131;BME280;18639;50.716;7.086;2023-02-18T03:55:03;100915.53;;;11.41;100.00
32131;BME280;18639;50.716;7.086;2023-02-18T03:57:29;100902.88;;;11.36;100.00
32131;BME280;18639;50.716;7.086;2023-02-18T03:59:54;100927.06;;;11.50;100.00
32131;BME280;18639;50.716;7.086;2023-02-18T04:02:20;100917.91;;;11.44;100.00
32131;BME280;18639;50.716;7.086;2023-02-18T04:04:45;100894.06;;;11.39;100.00
32131;BME280;18639;50.716;7.086;2023-02-18T04:07:39;100809.56;;;10.81;100.00
32131;BME280;18639;50.716;7.086;2023-02-18T04:10:07;100874.84;;;11.29;100.00
32131;BME280;18639;50.716;7.086;2023-02-18T04:12:33;100808.00;;;10.93;100.00
32131;BME280;18639;50.716;7.086;2023-02-18T04:14:58;100904.91;;;11.46;100.00
32131;BME280;18639;50.716;7.086;2023-02-18T04:17:24;100921.19;;;11.62;100.00
32131;BME280;18639;50.716;7.086;2023-02-18T04:19:49;100921.09;;;11.63;100.00
32131;BME280;18639;50.716;7.086;2023-02-18T04:22:15;100920.28;;;11.63;100.00
32131;BME280;18639;50.716;7.086;2023-02-18T04:24:40;100897.13;;;11.46;100.00
32131;BME280;18639;50.716;7.086;2023-02-18T04:27:05;100881.34;;;11.50;100.00
32131;BME280;18639;50.716;7.086;2023-02-18T04:29:31;100912.31;;;11.66;100.00
32131;BME280;18639;50.716;7.086;2023-02-18T04:31:56;100878.56;;;11.53;100.00
32131;BME280;18639;50.716;7.086;2023-02-18T04:34:21;100881.81;;;11.57;100.00
32131;BME280;18639;50.716;7.086;2023-02-18T04:36:47;100864.06;;;11.51;100.00
32131;BME280;18639;50.716;7.086;2023-02-18T04:39:13;100885.69;;;11.64;100.00
32131;BME280;18639;50.716;7.086;2023-02-18T04:41:38;100868.09;;;11.55;100.00
32131;BME280;18639;50.716;7.086;2023-02-18T04:44:03;100887.72;;;11.59;100.00
32131;BME280;18639;50.716;7.086;2023-02-18T04:46:29;100890.22;;;11.60;100.00
32131;BME280;18639;50.716;7.086;2023-02-18T04:48:55;100853.34;;;11.43;100.00
32131;BME280;18639;50.716;7.086;2023-02-18T04:51:20;100890.75;;;11.65;100.00
32131;BME280;18639;50.716;7.086;2023-02-18T04:53:45;100886.63;;;11.63;100.00
32131;BME280;18639;50.716;7.086;2023-02-18T04:56:11;100890.88;;;11.64;100.00
32131;BME280;18639;50.716;7.086;2023-02-18T04:58:36;100886.41;;;11.66;100.00
32131;BME280;18639;50.716;7.086;2023-02-18T05:01:03;100885.59;;;11.65;100.00
32131;BME280;18639;50.716;7.086;2023-02-18T05:03:29;100866.19;;;11.58;100.00
32131;BME280;18639;50.716;7.086;2023-02-18T05:05:55;100882.72;;;11.70;100.00
32131;BME280;18639;50.716;7.086;2023-02-18T05:08:20;100871.91;;;11.63;100.00
32131;BME280;18639;50.716;7.086;2023-02-18T05:10:45;100868.41;;;11.64;100.00
32131;BME280;18639;50.716;7.086;2023-02-18T05:13:11;100880.03;;;11.71;100.00
32131;BME280;18639;50.716;7.086;2023-02-18T05:15:36;100882.91;;;11.67;100.00
32131;BME280;18639;50.716;7.086;2023-02-18T05:18:01;100865.91;;;11.63;100.00
32131;BME280;18639;50.716;7.086;2023-02-18T05:20:27;100859.25;;;11.59;100.00
32131;BME280;18639;50.716;7.086;2023-02-18T05:22:52;100874.94;;;11.70;100.00
32131;BME280;18639;50.716;7.086;2023-02-18T05:25:18;100867.38;;;11.67;100.00
32131;BME280;18639;50.716;7.086;2023-02-18T05:27:43;100853.06;;;11.61;100.00
32131;BME280;18639;50.716;7.086;2023-02-18T05:30:09;100854.34;;;11.68;100.00
32131;BME280;18639;50.716;7.086;2023-02-18T05:32:34;100858.50;;;11.71;100.00
32131;BME280;18639;50.716;7.086;2023-02-18T05:34:59;100861.91;;;11.71;100.00
32131;BME280;18639;50.716;7.086;2023-02-18T05:37:24;100856.81;;;11.70;100.00
32131;BME280;18639;50.716;7.086;2023-02-18T05:39:50;100851.84;;;11.67;100.00
32131;BME280;18639;50.716;7.086;2023-02-18T05:42:15;100836.69;;;11.61;100.00
32131;BME280;18639;50.716;7.086;2023-02-18T05:44:40;100822.34;;;11.55;100.00
32131;BME280;18639;50.716;7.086;2023-02-18T05:47:10;100838.91;;;11.53;100.00
32131;BME280;18639;50.716;7.086;2023-02-18T05:49:38;100841.78;;;11.62;100.00
32131;BME280;18639;50.716;7.086;2023-02-18T05:52:03;100817.66;;;11.48;100.00
32131;BME280;18639;50.716;7.086;2023-02-18T05:54:29;100840.84;;;11.63;100.00
32131;BME280;18639;50.716;7.086;2023-02-18T05:56:55;100842.78;;;11.60;100.00
32131;BME280;18639;50.716;7.086;2023-02-18T05:59:21;100834.84;;;11.63;100.00
32131;BME280;18639;50.716;7.086;2023-02-18T06:01:47;100839.56;;;11.56;100.00
32131;BME280;18639;50.716;7.086;2023-02-18T06:04:13;100830.50;;;11.49;100.00
32131;BME280;18639;50.716;7.086;2023-02-18T06:06:39;100834.47;;;11.55;100.00
32131;BME280;18639;50.716;7.086;2023-02-18T06:09:04;100840.38;;;11.57;100.00
32131;BME280;18639;50.716;7.086;2023-02-18T06:11:30;100840.94;;;11.62;100.00
32131;BME280;18639;50.716;7.086;2023-02-18T06:13:55;100822.63;;;11.51;100.00
32131;BME280;18639;50.716;7.086;2023-02-18T06:16:21;100820.88;;;11.51;100.00
32131;BME280;18639;50.716;7.086;2023-02-18T06:18:46;100828.56;;;11.53;100.00
32131;BME280;18639;50.716;7.086;2023-02-18T06:21:11;100832.16;;;11.50;100.00
32131;BME280;18639;50.716;7.086;2023-02-18T06:23:36;100829.66;;;11.49;100.00
32131;BME280;18639;50.716;7.086;2023-02-18T06:26:02;100822.72;;;11.49;100.00
32131;BME280;18639;50.716;7.086;2023-02-18T06:28:27;100804.34;;;11.39;100.00
32131;BME280;18639;50.716;7.086;2023-02-18T06:30:52;100798.88;;;11.44;100.00
32131;BME280;18639;50.716;7.086;2023-02-18T06:33:18;100778.13;;;11.31;100.00
32131;BME280;18639;50.716;7.086;2023-02-18T06:35:55;100809.34;;;11.57;100.00
32131;BME280;18639;50.716;7.086;2023-02-18T06:38:21;100815.50;;;11.54;100.00
32131;BME280;18639;50.716;7.086;2023-02-18T06:40:47;100794.06;;;11.38;100.00
32131;BME280;18639;50.716;7.086;2023-02-18T06:43:12;100809.22;;;11.44;100.00
32131;BME280;18639;50.716;7.086;2023-02-18T06:45:38;100815.06;;;11.48;100.00
32131;BME280;18639;50.716;7.086;2023-02-18T06:48:04;100789.28;;;11.32;100.00
32131;BME280;18639;50.716;7.086;2023-02-18T06:50:29;100820.06;;;11.51;100.00
32131;BME280;18639;50.716;7.086;2023-02-18T06:52:54;100806.56;;;11.46;100.00
32131;BME280;18639;50.716;7.086;2023-02-18T06:55:20;100821.72;;;11.52;100.00
32131;BME280;18639;50.716;7.086;2023-02-18T06:57:45;100777.00;;;11.21;100.00
32131;BME280;18639;50.716;7.086;2023-02-18T07:00:10;100813.41;;;11.47;100.00
32131;BME280;18639;50.716;7.086;2023-02-18T07:02:36;100798.53;;;11.36;100.00
32131;BME280;18639;50.716;7.086;2023-02-18T07:05:01;100808.41;;;11.44;100.00
32131;BME280;18639;50.716;7.086;2023-02-18T07:07:26;100806.22;;;11.37;100.00
32131;BME280;18639;50.716;7.086;2023-02-18T07:09:52;100820.13;;;11.49;100.00
32131;BME280;18639;50.716;7.086;2023-02-18T07:12:17;100807.13;;;11.36;100.00
32131;BME280;18639;50.716;7.086;2023-02-18T07:14:42;100800.09;;;11.38;100.00
32131;BME280;18639;50.716;7.086;2023-02-18T07:17:07;100804.34;;;11.39;100.00
32131;BME280;18639;50.716;7.086;2023-02-18T07:19:33;100817.94;;;11.43;100.00
32131;BME280;18639;50.716;7.086;2023-02-18T07:21:58;100798.97;;;11.28;100.00
32131;BME280;18639;50.716;7.086;2023-02-18T07:24:24;100831.16;;;11.53;100.00
32131;BME280;18639;50.716;7.086;2023-02-18T07:26:49;100815.59;;;11.38;100.00
32131;BME280;18639;50.716;7.086;2023-02-18T07:29:14;100834.09;;;11.47;100.00
32131;BME280;18639;50.716;7.086;2023-02-18T07:31:40;100817.75;;;11.32;100.00
32131;BME280;18639;50.716;7.086;2023-02-18T07:34:05;100856.91;;;11.54;100.00
32131;BME280;18639;50.716;7.086;2023-02-18T07:36:30;100849.91;;;11.56;100.00
32131;BME280;18639;50.716;7.086;2023-02-18T07:38:56;100855.16;;;11.55;100.00
32131;BME280;18639;50.716;7.086;2023-02-18T07:41:22;100830.13;;;11.41;100.00
32131;BME280;18639;50.716;7.086;2023-02-18T07:43:48;100862.94;;;11.55;100.00
32131;BME280;18639;50.716;7.086;2023-02-18T07:46:13;100865.25;;;11.59;100.00
32131;BME280;18639;50.716;7.086;2023-02-18T07:48:39;100857.75;;;11.55;100.00
32131;BME280;18639;50.716;7.086;2023-02-18T07:51:05;100863.50;;;11.60;100.00
32131;BME280;18639;50.716;7.086;2023-02-18T07:53:31;100851.94;;;11.51;100.00
32131;BME280;18639;50.716;7.086;2023-02-18T07:56:00;100859.97;;;11.61;100.00
32131;BME280;18639;50.716;7.086;2023-02-18T07:58:29;100862.56;;;11.61;100.00
32131;BME280;18639;50.716;7.086;2023-02-18T08:00:55;100853.25;;;11.58;100.00
32131;BME280;18639;50.716;7.086;2023-02-18T08:03:23;100835.66;;;11.49;100.00
32131;BME280;18639;50.716;7.086;2023-02-18T08:05:50;100844.53;;;11.59;100.00
32131;BME280;18639;50.716;7.086;2023-02-18T08:08:22;100852.41;;;11.58;100.00
32131;BME280;18639;50.716;7.086;2023-02-18T08:10:49;100832.00;;;11.53;100.00
32131;BME280;18639;50.716;7.086;2023-02-18T08:13:14;100828.72;;;11.50;100.00
32131;BME280;18639;50.716;7.086;2023-02-18T08:15:39;100842.22;;;11.55;100.00
32131;BME280;18639;50.716;7.086;2023-02-18T08:18:06;100851.22;;;11.63;100.00
32131;BME280;18639;50.716;7.086;2023-02-18T08:20:36;100843.53;;;11.62;100.00
32131;BME280;18639;50.716;7.086;2023-02-18T08:23:02;100856.38;;;11.63;100.00
32131;BME280;18639;50.716;7.086;2023-02-18T08:25:27;100850.38;;;11.63;100.00
32131;BME280;18639;50.716;7.086;2023-02-18T08:27:53;100804.16;;;11.28;100.00
32131;BME280;18639;50.716;7.086;2023-02-18T08:30:18;100852.03;;;11.50;100.00
32131;BME280;18639;50.716;7.086;2023-02-18T08:32:43;100846.78;;;11.37;100.00
32131;BME280;18639;50.716;7.086;2023-02-18T08:35:10;100886.69;;;11.61;100.00
32131;BME280;18639;50.716;7.086;2023-02-18T08:37:35;100876.00;;;11.53;100.00
32131;BME280;18639;50.716;7.086;2023-02-18T08:40:01;100877.06;;;11.49;100.00
32131;BME280;18639;50.716;7.086;2023-02-18T08:42:27;100879.38;;;11.39;100.00
32131;BME280;18639;50.716;7.086;2023-02-18T08:44:52;100904.53;;;11.52;100.00
32131;BME280;18639;50.716;7.086;2023-02-18T08:47:19;100909.50;;;11.26;100.00
32131;BME280;18639;50.716;7.086;2023-02-18T08:49:44;100902.66;;;11.25;100.00
32131;BME280;18639;50.716;7.086;2023-02-18T08:52:09;100928.84;;;11.05;100.00
32131;BME280;18639;50.716;7.086;2023-02-18T08:54:34;100940.53;;;10.96;100.00
32131;BME280;18639;50.716;7.086;2023-02-18T08:57:00;100934.47;;;10.82;100.00
32131;BME280;18639;50.716;7.086;2023-02-18T08:59:25;100944.25;;;10.77;100.00
32131;BME280;18639;50.716;7.086;2023-02-18T09:01:51;100852.66;;;10.04;100.00
32131;BME280;18639;50.716;7.086;2023-02-18T09:04:16;100938.50;;;10.56;100.00
32131;BME280;18639;50.716;7.086;2023-02-18T09:06:42;100951.84;;;10.48;100.00
32131;BME280;18639;50.716;7.086;2023-02-18T09:09:07;100935.03;;;10.41;100.00
32131;BME280;18639;50.716;7.086;2023-02-18T09:11:33;100943.75;;;10.39;100.00
32131;BME280;18639;50.716;7.086;2023-02-18T09:13:58;100902.75;;;10.17;100.00
32131;BME280;18639;50.716;7.086;2023-02-18T09:16:24;100935.34;;;10.35;100.00
32131;BME280;18639;50.716;7.086;2023-02-18T09:18:50;100926.84;;;10.33;100.00
32131;BME280;18639;50.716;7.086;2023-02-18T09:21:16;100925.66;;;10.39;100.00
32131;BME280;18639;50.716;7.086;2023-02-18T09:23:43;100932.84;;;10.49;100.00
32131;BME280;18639;50.716;7.086;2023-02-18T09:26:11;100932.66;;;10.52;100.00
32131;BME280;18639;50.716;7.086;2023-02-18T09:28:38;100929.16;;;10.53;100.00
32131;BME280;18639;50.716;7.086;2023-02-18T09:31:05;100921.41;;;10.53;100.00
32131;BME280;18639;50.716;7.086;2023-02-18T09:33:34;100929.34;;;10.50;100.00
32131;BME280;18639;50.716;7.086;2023-02-18T09:36:00;100902.16;;;10.43;100.00
32131;BME280;18639;50.716;7.086;2023-02-18T09:38:26;100905.50;;;10.45;100.00
32131;BME280;18639;50.716;7.086;2023-02-18T09:40:52;100895.75;;;10.50;100.00
32131;BME280;18639;50.716;7.086;2023-02-18T09:43:31;100902.06;;;10.61;100.00
32131;BME280;18639;50.716;7.086;2023-02-18T09:45:58;100878.84;;;10.45;100.00
32131;BME280;18639;50.716;7.086;2023-02-18T09:48:27;100892.41;;;10.48;100.00
32131;BME280;18639;50.716;7.086;2023-02-18T09:50:54;100881.91;;;10.51;100.00
32131;BME280;18639;50.716;7.086;2023-02-18T09:53:21;100900.41;;;10.60;100.00
32131;BME280;18639;50.716;7.086;2023-02-18T09:55:48;100889.97;;;10.61;100.00
32131;BME280;18639;50.716;7.086;2023-02-18T09:58:20;100890.47;;;10.68;100.00
32131;BME280;18639;50.716;7.086;2023-02-18T10:00:49;100886.75;;;10.58;100.00
32131;BME280;18639;50.716;7.086;2023-02-18T10:03:24;100881.44;;;10.75;100.00
32131;BME280;18639;50.716;7.086;2023-02-18T10:06:05;100869.75;;;10.83;100.00
32131;BME280;18639;50.716;7.086;2023-02-18T10:08:35;100857.09;;;10.79;100.00
32131;BME280;18639;50.716;7.086;2023-02-18T10:11:00;100864.47;;;10.85;100.00
32131;BME280;18639;50.716;7.086;2023-02-18T10:13:34;100851.25;;;10.75;100.00
32131;BME280;18639;50.716;7.086;2023-02-18T10:16:01;100861.16;;;10.83;100.00
32131;BME280;18639;50.716;7.086;2023-02-18T10:18:32;100832.09;;;10.64;100.00
32131;BME280;18639;50.716;7.086;2023-02-18T10:21:11;100860.97;;;10.86;100.00
32131;BME280;18639;50.716;7.086;2023-02-18T10:23:40;100828.25;;;10.71;100.00
32131;BME280;18639;50.716;7.086;2023-02-18T10:26:11;100815.34;;;10.71;100.00
32131;BME280;18639;50.716;7.086;2023-02-18T10:28:36;100839.19;;;10.90;100.00
32131;BME280;18639;50.716;7.086;2023-02-18T10:31:08;100852.34;;;11.01;100.00
32131;BME280;18639;50.716;7.086;2023-02-18T10:33:53;100844.97;;;11.09;100.00
32131;BME280;18639;50.716;7.086;2023-02-18T10:36:26;100849.03;;;10.99;100.00
32131;BME280;18639;50.716;7.086;2023-02-18T10:44:54;100827.25;;;11.17;100.00
32131;BME280;18639;50.716;7.086;2023-02-18T10:52:41;100821.25;;;11.45;100.00
32131;BME280;18639;50.716;7.086;2023-02-18T10:55:15;100825.06;;;11.54;100.00
32131;BME280;18639;50.716;7.086;2023-02-18T10:57:50;100818.75;;;11.58;100.00
32131;BME280;18639;50.716;7.086;2023-02-18T11:00:22;100821.69;;;11.66;100.00
32131;BME280;18639;50.716;7.086;2023-02-18T11:03:03;100833.28;;;11.74;100.00
32131;BME280;18639;50.716;7.086;2023-02-18T11:05:37;100824.13;;;11.69;100.00
32131;BME280;18639;50.716;7.086;2023-02-18T11:08:07;100810.63;;;11.64;100.00
32131;BME280;18639;50.716;7.086;2023-02-18T11:10:44;100797.88;;;11.47;100.00
32131;BME280;18639;50.716;7.086;2023-02-18T11:13:12;100838.56;;;11.73;100.00
32131;BME280;18639;50.716;7.086;2023-02-18T11:15:53;100826.16;;;11.64;100.00
32131;BME280;18639;50.716;7.086;2023-02-18T11:18:29;100832.47;;;11.74;100.00
32131;BME280;18639;50.716;7.086;2023-02-18T11:21:02;100828.97;;;11.75;100.00
32131;BME280;18639;50.716;7.086;2023-02-18T11:23:28;100838.06;;;11.66;100.00
32131;BME280;18639;50.716;7.086;2023-02-18T11:26:03;100837.66;;;11.74;100.00
32131;BME280;18639;50.716;7.086;2023-02-18T11:28:42;100845.09;;;11.50;100.00
32131;BME280;18639;50.716;7.086;2023-02-18T11:31:15;100858.59;;;11.55;100.00
32131;BME280;18639;50.716;7.086;2023-02-18T11:33:43;100846.94;;;11.34;100.00
32131;BME280;18639;50.716;7.086;2023-02-18T11:36:29;100857.22;;;11.35;100.00
32131;BME280;18639;50.716;7.086;2023-02-18T11:38:55;100847.31;;;11.28;100.00
32131;BME280;18639;50.716;7.086;2023-02-18T11:41:30;100851.34;;;11.18;100.00
32131;BME280;18639;50.716;7.086;2023-02-18T11:43:56;100853.31;;;11.14;100.00
32131;BME280;18639;50.716;7.086;2023-02-18T11:46:24;100783.00;;;10.64;100.00
32131;BME280;18639;50.716;7.086;2023-02-18T11:48:51;100845.69;;;10.97;100.00
32131;BME280;18639;50.716;7.086;2023-02-18T11:51:26;100873.44;;;11.23;100.00
32131;BME280;18639;50.716;7.086;2023-02-18T11:54:01;100809.19;;;10.87;100.00
32131;BME280;18639;50.716;7.086;2023-02-18T11:56:36;100873.63;;;11.20;100.00
32131;BME280;18639;50.716;7.086;2023-02-18T11:59:03;100847.56;;;11.09;100.00
32131;BME280;18639;50.716;7.086;2023-02-18T12:01:45;100860.03;;;11.17;100.00
32131;BME280;18639;50.716;7.086;2023-02-18T12:04:20;100846.66;;;11.10;100.00
32131;BME280;18639;50.716;7.086;2023-02-18T12:07:11;100858.28;;;11.17;100.00
32131;BME280;18639;50.716;7.086;2023-02-18T12:09:42;100841.47;;;11.10;100.00
32131;BME280;18639;50.716;7.086;2023-02-18T12:12:15;100836.31;;;11.10;100.00
32131;BME280;18639;50.716;7.086;2023-02-18T12:14:42;100852.81;;;11.08;100.00
32131;BME280;18639;50.716;7.086;2023-02-18T12:20:11;100837.22;;;10.95;100.00
32131;BME280;18639;50.716;7.086;2023-02-18T12:22:59;100854.47;;;10.94;100.00
32131;BME280;18639;50.716;7.086;2023-02-18T12:28:23;100843.28;;;10.94;100.00
32131;BME280;18639;50.716;7.086;2023-02-18T12:34:00;100828.22;;;11.01;100.00
32131;BME280;18639;50.716;7.086;2023-02-18T12:37:04;100849.31;;;11.09;100.00
32131;BME280;18639;50.716;7.086;2023-02-18T12:47:57;100842.94;;;11.00;100.00
32131;BME280;18639;50.716;7.086;2023-02-18T12:50:46;100848.69;;;11.05;100.00
32131;BME280;18639;50.716;7.086;2023-02-18T12:53:36;100854.50;;;11.09;100.00
32131;BME280;18639;50.716;7.086;2023-02-18T12:56:46;100846.66;;;11.10;100.00
32131;BME280;18639;50.716;7.086;2023-02-18T13:04:53;100845.63;;;11.13;100.00
32131;BME280;18639;50.716;7.086;2023-02-18T13:08:11;100849.59;;;11.18;100.00
32131;BME280;18639;50.716;7.086;2023-02-18T13:10:28;100848.28;;;11.11;100.00
32131;BME280;18639;50.716;7.086;2023-02-18T13:13:08;100847.84;;;11.19;100.00
32131;BME280;18639;50.716;7.086;2023-02-18T13:15:41;100851.06;;;11.22;100.00
32131;BME280;18639;50.716;7.086;2023-02-18T13:18:15;100836.31;;;11.10;100.00
32131;BME280;18639;50.716;7.086;2023-02-18T13:20:58;100844.44;;;11.18;100.00
32131;BME280;18639;50.716;7.086;2023-02-18T13:23:28;100854.06;;;11.30;100.00
32131;BME280;18639;50.716;7.086;2023-02-18T13:26:01;100850.34;;;11.34;100.00
32131;BME280;18639;50.716;7.086;2023-02-18T13:31:13;100847.69;;;11.36;100.00
32131;BME280;18639;50.716;7.086;2023-02-18T13:36:21;100844.91;;;11.39;100.00
32131;BME280;18639;50.716;7.086;2023-02-18T13:39:05;100842.03;;;11.44;100.00
32131;BME280;18639;50.716;7.086;2023-02-18T13:41:39;100826.72;;;11.40;100.00
32131;BME280;18639;50.716;7.086;2023-02-18T13:46:56;100840.75;;;11.65;100.00
32131;BME280;18639;50.716;7.086;2023-02-18T13:49:31;100833.25;;;11.60;100.00
32131;BME280;18639;50.716;7.086;2023-02-18T13:51:59;100840.94;;;11.76;100.00
32131;BME280;18639;50.716;7.086;2023-02-18T13:54:29;100843.00;;;11.85;100.00
32131;BME280;18639;50.716;7.086;2023-02-18T13:57:02;100844.53;;;11.88;100.00
32131;BME280;18639;50.716;7.086;2023-02-18T13:59:34;100835.03;;;11.88;100.00
32131;BME280;18639;50.716;7.086;2023-02-18T14:04:49;100846.09;;;12.04;100.00
32131;BME280;18639;50.716;7.086;2023-02-18T14:07:26;100837.78;;;11.99;100.00
32131;BME280;18639;50.716;7.086;2023-02-18T14:09:55;100824.91;;;11.98;100.00
32131;BME280;18639;50.716;7.086;2023-02-18T14:12:33;100843.59;;;12.03;100.00